createdAt,value
2018-06-27T02:55:17.739Z,100.00
2018-06-27T02:56:40.568Z,100.00
2018-06-27T02:58:21.475Z,100.00
2018-06-27T03:55:57.855Z,100.00
2018-06-27T03:57:24.494Z,100.00
2018-06-27T03:58:51.823Z,100.00
2018-06-27T04:00:19.035Z,100.00
2018-06-27T04:01:46.570Z,100.00
2018-06-27T04:03:14.187Z,100.00
2018-06-27T04:04:41.707Z,100.00
2018-06-27T04:06:13.192Z,100.00
2018-06-27T04:07:36.711Z,100.00
2018-06-27T04:09:04.114Z,100.00
2018-06-27T04:10:31.557Z,100.00
2018-06-27T04:11:58.865Z,100.00
2018-06-27T04:13:30.393Z,100.00
2018-06-27T04:14:53.838Z,100.00
2018-06-27T04:16:21.419Z,100.00
2018-06-27T04:17:49.072Z,100.00
2018-06-27T04:19:20.489Z,100.00
2018-06-27T04:20:48.011Z,100.00
2018-06-27T04:22:15.462Z,100.00
2018-06-27T04:23:38.895Z,100.00
2018-06-27T04:25:05.772Z,100.00
2018-06-27T04:26:32.980Z,100.00
2018-06-27T04:28:00.637Z,100.00
2018-06-27T04:29:31.817Z,100.00
2018-06-27T04:30:55.371Z,100.00
2018-06-27T04:32:22.915Z,100.00
2018-06-27T04:33:50.430Z,100.00
2018-06-27T04:35:17.917Z,100.00
2018-06-27T05:24:47.787Z,100.00
2018-06-27T05:26:14.680Z,100.00
2018-06-27T05:27:38.070Z,100.00
2018-06-27T05:29:09.251Z,100.00
2018-06-27T05:30:32.602Z,100.00
2018-06-27T05:31:59.988Z,100.00
2018-06-27T05:33:27.439Z,100.00
2018-06-27T05:34:54.792Z,100.00
2018-06-27T05:36:26.389Z,100.00
2018-06-27T05:37:50.216Z,100.00
2018-06-27T05:39:21.361Z,100.00
2018-06-27T05:40:45.092Z,100.00
2018-06-27T05:42:13.153Z,100.00
2018-06-27T05:43:44.768Z,100.00
2018-06-27T05:45:08.591Z,100.00
2018-06-27T05:46:36.361Z,100.00
2018-06-27T05:48:03.822Z,100.00
2018-06-27T05:49:31.487Z,100.00
2018-06-27T05:51:03.084Z,100.00
2018-06-27T05:52:27.031Z,100.00
2018-06-27T05:53:54.631Z,100.00
2018-06-27T05:55:26.177Z,100.00
2018-06-27T05:56:49.891Z,100.00
2018-06-27T05:58:17.806Z,100.00
2018-06-27T05:59:49.073Z,100.00
2018-06-27T06:01:12.834Z,100.00
2018-06-27T06:02:40.450Z,100.00
2018-06-27T06:04:08.011Z,100.00
2018-06-27T06:05:39.418Z,100.00
2018-06-27T06:07:02.923Z,100.00
2018-06-27T06:08:30.259Z,100.00
2018-06-27T06:09:58.107Z,100.00
2018-06-27T06:11:29.559Z,100.00
2018-06-27T06:12:53.036Z,100.00
2018-06-27T06:14:24.581Z,100.00
2018-06-27T06:15:47.985Z,100.00
2018-06-27T06:17:15.574Z,100.00
2018-06-27T06:18:42.939Z,100.00
2018-06-27T06:20:10.623Z,100.00
2018-06-27T06:21:38.047Z,100.00
2018-06-27T06:23:05.542Z,100.00
2018-06-27T06:24:32.962Z,100.00
2018-06-27T06:26:00.623Z,100.00
2018-06-27T06:27:27.793Z,100.00
2018-06-27T06:28:55.443Z,100.00
2018-06-27T06:30:22.984Z,100.00
2018-06-27T06:31:54.590Z,100.00
2018-06-27T06:33:18.404Z,100.00
2018-06-27T06:34:46.035Z,100.00
2018-06-27T06:36:17.631Z,100.00
2018-06-27T06:37:41.305Z,100.00
2018-06-27T06:39:08.948Z,100.00
2018-06-27T06:40:36.843Z,100.00
2018-06-27T06:42:08.239Z,100.00
2018-06-27T06:43:32.111Z,100.00
2018-06-27T06:44:59.634Z,100.00
2018-06-27T06:46:27.279Z,100.00
2018-06-27T06:47:58.888Z,100.00
2018-06-27T06:49:22.858Z,100.00
2018-06-27T06:50:54.551Z,100.00
2018-06-27T06:52:18.143Z,100.00
2018-06-27T06:53:45.752Z,100.00
2018-06-27T06:55:17.357Z,100.00
2018-06-27T06:56:40.936Z,100.00
2018-06-27T06:58:08.545Z,100.00
2018-06-27T06:59:36.072Z,100.00
2018-06-27T07:01:03.642Z,100.00
2018-06-27T07:02:31.299Z,100.00
2018-06-27T07:04:03.769Z,100.00
2018-06-27T07:05:26.368Z,100.00
2018-06-27T07:06:57.955Z,100.00
2018-06-27T07:08:21.515Z,100.00
2018-06-27T07:09:49.132Z,100.00
2018-06-27T07:11:16.934Z,100.00
2018-06-27T07:12:44.336Z,100.00
2018-06-27T07:14:11.984Z,100.00
2018-06-27T07:15:39.491Z,100.00
2018-06-27T07:17:11.108Z,100.00
2018-06-27T07:18:38.636Z,100.00
2018-06-27T07:20:02.061Z,100.00
2018-06-27T07:21:29.599Z,100.00
2018-06-27T07:23:01.265Z,100.00
2018-06-27T07:24:24.716Z,100.00
2018-06-27T07:25:52.327Z,100.00
2018-06-27T07:27:23.848Z,100.00
2018-06-27T07:28:51.287Z,100.00
2018-06-27T07:30:14.793Z,100.00
2018-06-27T07:31:42.452Z,100.00
2018-06-27T07:33:09.993Z,100.00
2018-06-27T07:34:41.495Z,100.00
2018-06-27T07:36:05.000Z,100.00
2018-06-27T07:37:32.260Z,100.00
2018-06-27T07:39:03.884Z,100.00
2018-06-27T07:40:27.501Z,100.00
2018-06-27T07:41:55.060Z,100.00
2018-06-27T07:43:22.591Z,100.00
2018-06-27T07:44:50.350Z,100.00
2018-06-27T07:46:17.834Z,100.00
2018-06-27T07:47:45.412Z,100.00
2018-06-27T07:49:12.826Z,100.00
2018-06-27T07:50:40.356Z,100.00
2018-06-27T07:52:07.761Z,100.00
2018-06-27T07:53:39.382Z,100.00
2018-06-27T07:55:03.016Z,100.00
2018-06-27T07:56:30.542Z,100.00
2018-06-27T07:57:57.857Z,100.00
2018-06-27T07:59:29.283Z,100.00
2018-06-27T08:00:52.820Z,100.00
2018-06-27T08:02:24.199Z,100.00
2018-06-27T08:03:47.765Z,100.00
2018-06-27T08:05:15.356Z,100.00
2018-06-27T08:06:42.909Z,100.00
2018-06-27T08:08:10.398Z,100.00
2018-06-27T08:09:38.117Z,100.00
2018-06-27T08:11:05.280Z,100.00
2018-06-27T08:12:32.743Z,100.00
2018-06-27T08:14:04.144Z,100.00
2018-06-27T08:15:27.580Z,100.00
2018-06-27T08:16:55.049Z,100.00
2018-06-27T08:18:22.700Z,100.00
2018-06-27T08:19:50.247Z,100.00
2018-06-27T08:21:21.800Z,100.00
2018-06-27T08:22:44.904Z,100.00
2018-06-27T08:24:12.602Z,100.00
2018-06-27T08:25:39.950Z,100.00
2018-06-27T08:27:07.504Z,100.00
2018-06-27T08:28:34.876Z,100.00
2018-06-27T08:30:02.510Z,100.00
2018-06-27T08:31:34.111Z,100.00
2018-06-27T08:32:57.684Z,100.00
2018-06-27T08:34:25.181Z,100.00
2018-06-27T08:35:52.793Z,100.00
2018-06-27T08:37:20.199Z,100.00
2018-06-27T08:38:47.708Z,100.00
2018-06-27T08:40:15.441Z,100.00
2018-06-27T08:41:42.757Z,100.00
2018-06-27T08:43:10.303Z,100.00
2018-06-27T08:44:37.957Z,100.00
2018-06-27T08:46:09.541Z,100.00
2018-06-27T08:47:33.062Z,100.00
2018-06-27T08:49:04.556Z,100.00
2018-06-27T08:50:31.984Z,100.00
2018-06-27T08:51:59.487Z,100.00
2018-06-27T08:53:26.885Z,100.00
2018-06-27T08:54:50.466Z,100.00
2018-06-27T08:56:21.870Z,100.00
2018-06-27T08:57:45.575Z,100.00
2018-06-27T08:59:16.961Z,100.00
2018-06-27T09:00:40.233Z,100.00
2018-06-27T09:02:07.776Z,100.00
2018-06-27T09:03:35.316Z,100.00
2018-06-27T09:05:02.833Z,100.00
2018-06-27T09:06:34.341Z,100.00
2018-06-27T09:07:58.091Z,96.51
2018-06-27T09:09:29.553Z,100.00
2018-06-27T09:10:53.159Z,100.00
2018-06-27T09:12:24.835Z,100.00
2018-06-27T09:13:48.469Z,100.00
2018-06-27T09:15:15.799Z,100.00
2018-06-27T09:16:43.443Z,100.00
2018-06-27T09:18:11.116Z,100.00
2018-06-27T09:19:38.603Z,100.00
2018-06-27T09:21:06.119Z,100.00
2018-06-27T09:22:33.703Z,100.00
2018-06-27T09:24:01.055Z,100.00
2018-06-27T09:25:32.485Z,100.00
2018-06-27T09:26:56.059Z,100.00
2018-06-27T09:28:27.710Z,100.00
2018-06-27T09:29:51.240Z,100.00
2018-06-27T09:31:19.125Z,100.00
2018-06-27T09:32:46.640Z,99.15
2018-06-27T09:34:14.466Z,100.00
2018-06-27T09:35:41.866Z,100.00
2018-06-27T09:37:09.400Z,100.00
2018-06-27T09:38:37.096Z,96.73
2018-06-27T09:40:04.613Z,95.73
2018-06-27T09:41:32.131Z,92.49
2018-06-27T09:42:59.658Z,95.41
2018-06-27T09:44:31.424Z,93.79
2018-06-27T09:45:58.727Z,92.97
2018-06-27T09:47:22.511Z,98.03
2018-06-27T09:48:49.967Z,99.54
2018-06-27T09:50:21.561Z,100.00
2018-06-27T09:51:49.061Z,94.58
2018-06-27T09:53:12.665Z,93.87
2018-06-27T09:54:40.113Z,95.81
2018-06-27T09:56:11.872Z,93.79
2018-06-27T09:57:39.390Z,90.56
2018-06-27T09:59:02.871Z,90.70
2018-06-27T10:00:30.261Z,92.92
2018-06-27T10:02:02.259Z,95.11
2018-06-27T10:03:25.821Z,93.28
2018-06-27T10:04:53.560Z,97.39
2018-06-27T10:06:21.091Z,93.24
2018-06-27T10:07:48.557Z,99.95
2018-06-27T10:09:16.230Z,99.68
2018-06-27T10:10:43.924Z,98.36
2018-06-27T10:12:15.171Z,98.90
2018-06-27T10:13:38.718Z,100.00
2018-06-27T10:15:06.186Z,96.30
2018-06-27T10:16:33.479Z,100.00
2018-06-27T10:18:00.986Z,98.00
2018-06-27T10:19:28.404Z,98.30
2018-06-27T10:20:59.915Z,94.26
2018-06-27T10:22:23.503Z,96.96
2018-06-27T10:23:54.999Z,100.00
2018-06-27T10:25:18.711Z,98.98
2018-06-27T10:26:46.281Z,100.00
2018-06-27T10:28:13.942Z,97.85
2018-06-27T10:29:41.477Z,99.42
2018-06-27T10:31:09.277Z,96.35
2018-06-27T10:32:36.848Z,97.88
2018-06-27T10:34:04.545Z,100.00
2018-06-27T10:35:32.104Z,99.14
2018-06-27T10:36:59.545Z,96.49
2018-06-27T10:38:27.081Z,99.52
2018-06-27T10:39:58.779Z,100.00
2018-06-27T10:41:22.308Z,100.00
2018-06-27T10:42:49.715Z,100.00
2018-06-27T10:44:17.287Z,100.00
2018-06-27T10:45:44.794Z,100.00
2018-06-27T10:47:12.590Z,93.64
2018-06-27T10:48:40.143Z,94.08
2018-06-27T10:50:07.776Z,95.99
2018-06-27T10:51:35.328Z,100.00
2018-06-27T10:53:02.753Z,100.00
2018-06-27T10:54:30.422Z,100.00
2018-06-27T10:55:58.230Z,98.69
2018-06-27T10:57:29.900Z,100.00
2018-06-27T10:58:53.482Z,100.00
2018-06-27T11:00:20.918Z,99.71
2018-06-27T11:01:48.537Z,100.00
2018-06-27T11:03:16.138Z,100.00
2018-06-27T11:04:43.768Z,100.00
2018-06-27T11:06:11.548Z,99.85
2018-06-27T11:07:39.270Z,95.32
2018-06-27T11:09:06.774Z,96.27
2018-06-27T11:10:34.354Z,100.00
2018-06-27T11:12:06.018Z,93.63
2018-06-27T11:13:29.416Z,95.19
2018-06-27T11:15:01.057Z,97.37
2018-06-27T11:16:24.765Z,96.40
2018-06-27T11:17:56.396Z,91.50
2018-06-27T11:19:20.018Z,93.29
2018-06-27T11:20:47.577Z,95.66
2018-06-27T11:23:42.820Z,95.61
2018-06-27T11:25:10.492Z,97.11
2018-06-27T11:26:38.161Z,94.70
2018-06-27T11:28:05.832Z,87.86
2018-06-27T11:29:33.390Z,86.93
2018-06-27T11:31:00.999Z,86.14
2018-06-27T11:32:32.497Z,95.33
2018-06-27T11:34:00.050Z,89.61
2018-06-27T11:35:23.614Z,88.47
2018-06-27T11:36:51.308Z,89.17
2018-06-27T11:38:19.075Z,92.21
2018-06-27T11:39:46.487Z,87.87
2018-06-27T11:41:14.130Z,89.22
2018-06-27T11:42:41.773Z,93.88
2018-06-27T11:44:13.428Z,92.59
2018-06-27T11:45:36.963Z,92.74
2018-06-27T11:47:04.573Z,93.10
2018-06-27T11:48:32.135Z,94.67
2018-06-27T11:49:59.602Z,99.20
2018-06-27T11:51:27.206Z,99.59
2018-06-27T11:52:54.625Z,90.26
2018-06-27T11:54:22.193Z,87.39
2018-06-27T11:55:49.901Z,91.68
2018-06-27T11:57:17.530Z,93.73
2018-06-27T11:58:45.064Z,91.76
2018-06-27T12:00:12.453Z,87.52
2018-06-27T12:01:44.268Z,86.53
2018-06-27T12:03:07.829Z,86.90
2018-06-27T12:04:35.175Z,86.05
2018-06-27T12:06:02.733Z,82.28
2018-06-27T12:07:34.183Z,83.56
2018-06-27T12:09:01.748Z,86.50
2018-06-27T12:10:25.245Z,86.80
2018-06-27T12:11:56.821Z,89.04
2018-06-27T12:13:20.440Z,92.05
2018-06-27T12:14:48.180Z,86.07
2018-06-27T12:16:15.706Z,82.19
2018-06-27T12:17:47.286Z,84.69
2018-06-27T12:19:14.834Z,87.97
2018-06-27T12:20:42.453Z,89.65
2018-06-27T12:22:06.065Z,91.71
2018-06-27T12:23:33.702Z,92.12
2018-06-27T12:25:01.401Z,95.17
2018-06-27T12:26:29.136Z,89.20
2018-06-27T12:27:56.409Z,90.03
2018-06-27T12:29:23.806Z,86.91
2018-06-27T12:30:51.580Z,89.94
2018-06-27T12:32:19.265Z,84.36
2018-06-27T12:33:50.884Z,87.00
2018-06-27T12:35:18.646Z,85.93
2018-06-27T12:36:46.061Z,83.82
2018-06-27T12:38:09.596Z,86.33
2018-06-27T12:39:37.299Z,88.12
2018-06-27T12:41:04.836Z,87.75
2018-06-27T12:42:36.601Z,86.39
2018-06-27T12:44:00.170Z,84.72
2018-06-27T12:45:31.832Z,88.22
2018-06-27T12:46:55.509Z,88.69
2018-06-27T12:48:22.997Z,92.16
2018-06-27T12:49:54.619Z,86.54
2018-06-27T12:51:18.143Z,88.32
2018-06-27T12:52:45.691Z,90.73
2018-06-27T12:54:13.331Z,84.72
2018-06-27T12:55:44.996Z,89.91
2018-06-27T12:57:08.679Z,86.18
2018-06-27T12:58:40.297Z,86.92
2018-06-27T13:00:07.940Z,91.08
2018-06-27T13:01:31.502Z,91.82
2018-06-27T13:02:59.101Z,93.60
2018-06-27T13:04:26.651Z,93.25
2018-06-27T13:05:54.294Z,92.95
2018-06-27T13:07:21.945Z,94.23
2018-06-27T13:08:49.546Z,93.92
2018-06-27T13:10:25.009Z,96.64
2018-06-27T13:11:44.545Z,96.09
2018-06-27T13:13:12.246Z,100.00
2018-06-27T13:14:39.534Z,99.30
2018-06-27T13:16:11.098Z,99.69
2018-06-27T13:17:38.384Z,98.85
2018-06-27T13:19:01.832Z,98.23
2018-06-27T13:20:29.504Z,96.39
2018-06-27T13:22:01.170Z,98.69
2018-06-27T13:23:24.849Z,99.17
2018-06-27T13:24:56.470Z,100.00
2018-06-27T13:26:20.063Z,100.00
2018-06-27T13:27:47.644Z,100.00
2018-06-27T13:29:15.260Z,100.00
2018-06-27T13:30:42.970Z,100.00
2018-06-27T13:32:10.457Z,99.52
2018-06-27T13:33:37.970Z,94.56
2018-06-27T13:35:05.576Z,97.02
2018-06-27T13:36:33.068Z,99.68
2018-06-27T13:38:04.572Z,100.00
2018-06-27T13:39:27.832Z,100.00
2018-06-27T13:40:55.192Z,100.00
2018-06-27T13:42:22.979Z,100.00
2018-06-27T13:43:50.572Z,99.88
2018-06-27T13:45:18.374Z,100.00
2018-06-27T13:46:45.972Z,100.00
2018-06-27T13:48:17.444Z,100.00
2018-06-27T13:49:40.734Z,100.00
2018-06-27T13:51:08.216Z,100.00
2018-06-27T13:52:35.872Z,100.00
2018-06-27T13:54:03.288Z,100.00
2018-06-27T13:55:30.955Z,100.00
2018-06-27T13:57:02.513Z,100.00
2018-06-27T13:58:25.993Z,100.00
2018-06-27T13:59:53.771Z,100.00
2018-06-27T14:01:25.378Z,100.00
2018-06-27T14:02:48.742Z,100.00
2018-06-27T14:04:16.362Z,100.00
2018-06-27T14:05:43.786Z,100.00
2018-06-27T14:07:11.533Z,100.00
2018-06-27T14:08:39.013Z,100.00
2018-06-27T14:10:10.609Z,100.00
2018-06-27T14:11:34.245Z,100.00
2018-06-27T14:13:05.731Z,100.00
2018-06-27T14:14:33.245Z,100.00
2018-06-27T14:15:56.613Z,100.00
2018-06-27T14:17:24.297Z,100.00
2018-06-27T14:18:51.889Z,100.00
2018-06-27T14:20:19.291Z,100.00
2018-06-27T14:21:50.781Z,100.00
2018-06-27T14:23:14.465Z,100.00
2018-06-27T14:24:42.055Z,100.00
2018-06-27T14:26:09.484Z,100.00
2018-06-27T14:27:37.084Z,100.00
2018-06-27T14:29:04.701Z,100.00
2018-06-27T14:30:32.382Z,100.00
2018-06-27T14:32:03.990Z,100.00
2018-06-27T14:33:27.684Z,100.00
2018-06-27T14:34:55.253Z,100.00
2018-06-27T14:36:26.841Z,100.00
2018-06-27T14:37:50.465Z,100.00
2018-06-27T14:39:18.026Z,100.00
2018-06-27T14:40:45.800Z,100.00
2018-06-27T14:42:13.323Z,100.00
2018-06-27T14:43:44.784Z,98.11
2018-06-27T14:45:08.192Z,100.00
2018-06-27T14:46:35.773Z,100.00
2018-06-27T14:48:03.134Z,100.00
2018-06-27T14:49:30.688Z,100.00
2018-06-27T14:51:02.053Z,100.00
2018-06-27T14:52:25.633Z,100.00
2018-06-27T14:53:53.241Z,100.00
2018-06-27T14:55:20.883Z,100.00
2018-06-27T14:56:48.476Z,100.00
2018-06-27T14:58:19.956Z,100.00
2018-06-27T14:59:43.614Z,100.00
2018-06-27T15:01:11.079Z,100.00
2018-06-27T15:02:38.727Z,100.00
2018-06-27T15:04:06.308Z,100.00
2018-06-27T15:05:33.821Z,100.00
2018-06-27T15:07:01.273Z,100.00
2018-06-27T15:08:32.651Z,100.00
2018-06-27T15:09:56.044Z,100.00
2018-06-27T15:11:23.804Z,100.00
2018-06-27T15:12:51.093Z,100.00
2018-06-27T15:14:18.810Z,100.00
2018-06-27T15:15:46.374Z,100.00
2018-06-27T15:17:13.498Z,100.00
2018-06-27T15:18:45.040Z,100.00
2018-06-27T15:20:08.500Z,100.00
2018-06-27T15:21:36.132Z,100.00
2018-06-27T15:23:03.780Z,100.00
2018-06-27T15:24:31.355Z,100.00
2018-06-27T15:25:58.812Z,100.00
2018-06-27T15:27:26.401Z,100.00
2018-06-27T15:28:53.926Z,100.00
2018-06-27T15:30:21.479Z,100.00
2018-06-27T15:31:53.131Z,100.00
2018-06-27T15:33:16.613Z,100.00
2018-06-27T15:34:48.074Z,100.00
2018-06-27T15:36:11.596Z,100.00
2018-06-27T15:37:39.043Z,100.00
2018-06-27T15:39:06.748Z,100.00
2018-06-27T15:40:34.177Z,100.00
2018-06-27T15:42:01.799Z,100.00
2018-06-27T15:43:29.517Z,100.00
2018-06-27T15:44:57.115Z,100.00
2018-06-27T15:46:24.613Z,100.00
2018-06-27T15:47:51.989Z,100.00
2018-06-27T15:49:23.614Z,100.00
2018-06-27T15:50:47.202Z,100.00
2018-06-27T15:52:14.844Z,100.00
2018-06-27T15:53:46.310Z,100.00
2018-06-27T15:55:10.112Z,100.00
2018-06-27T15:56:37.464Z,100.00
2018-06-27T15:58:09.029Z,100.00
2018-06-27T15:59:36.613Z,100.00
2018-06-27T16:01:05.156Z,100.00
2018-06-27T16:02:31.451Z,100.00
2018-06-27T16:03:59.122Z,100.00
2018-06-27T16:05:22.665Z,100.00
2018-06-27T16:06:50.333Z,100.00
2018-06-27T16:08:21.498Z,100.00
2018-06-27T16:09:45.057Z,100.00
2018-06-27T16:11:12.618Z,100.00
2018-06-27T16:12:43.971Z,100.00
2018-06-27T16:14:07.410Z,100.00
2018-06-27T16:15:34.863Z,99.11
2018-06-27T16:17:06.420Z,100.00
2018-06-27T16:18:29.773Z,100.00
2018-06-27T16:20:01.417Z,100.00
2018-06-27T16:21:28.939Z,100.00
2018-06-27T16:22:52.530Z,100.00
2018-06-27T16:24:20.289Z,100.00
2018-06-27T16:25:47.831Z,100.00
2018-06-27T16:27:15.381Z,100.00
2018-06-27T16:28:42.924Z,100.00
2018-06-27T16:30:10.370Z,100.00
2018-06-27T16:31:37.988Z,100.00
2018-06-27T16:33:05.611Z,100.00
2018-06-27T16:34:37.187Z,100.00
2018-06-27T16:36:04.728Z,100.00
2018-06-27T16:37:28.056Z,100.00
2018-06-27T16:38:55.505Z,100.00
2018-06-27T16:40:23.001Z,100.00
2018-06-27T16:41:54.755Z,100.00
2018-06-27T16:43:22.278Z,100.00
2018-06-27T16:44:45.739Z,99.94
2018-06-27T16:46:17.272Z,100.00
2018-06-27T16:47:40.417Z,100.00
2018-06-27T16:49:07.965Z,98.83
2018-06-27T16:50:39.704Z,100.00
2018-06-27T16:52:03.283Z,100.00
2018-06-27T16:53:30.761Z,100.00
2018-06-27T16:54:58.106Z,100.00
2018-06-27T16:56:25.528Z,100.00
2018-06-27T16:57:52.913Z,99.36
2018-06-27T16:59:24.557Z,99.30
2018-06-27T17:00:48.149Z,100.00
2018-06-27T17:02:19.530Z,100.00
2018-06-27T17:03:47.210Z,100.00
2018-06-27T17:05:10.899Z,100.00
2018-06-27T17:06:38.565Z,100.00
2018-06-27T17:08:05.962Z,100.00
2018-06-27T17:09:33.349Z,100.00
2018-06-27T17:11:00.905Z,100.00
2018-06-27T17:12:28.153Z,100.00
2018-06-27T17:13:55.786Z,100.00
2018-06-27T17:15:23.197Z,100.00
2018-06-27T17:16:50.534Z,100.00
2018-06-27T17:18:22.230Z,100.00
2018-06-27T17:19:45.840Z,100.00
2018-06-27T17:21:13.511Z,100.00
2018-06-27T17:22:40.868Z,100.00
2018-06-27T17:24:08.105Z,100.00
2018-06-27T17:25:35.604Z,100.00
2018-06-27T17:27:03.133Z,100.00
2018-06-27T17:28:30.681Z,100.00
2018-06-27T17:29:57.893Z,100.00
2018-06-27T17:31:25.490Z,100.00
2018-06-27T17:32:52.942Z,100.00
2018-06-27T17:34:20.448Z,100.00
2018-06-27T17:35:47.968Z,100.00
2018-06-27T17:37:15.360Z,100.00
2018-06-27T17:38:46.909Z,100.00
2018-06-27T17:40:10.530Z,100.00
2018-06-27T17:41:38.235Z,100.00
2018-06-27T17:43:05.894Z,100.00
2018-06-27T17:44:33.395Z,100.00
2018-06-27T17:46:00.802Z,100.00
2018-06-27T17:47:28.214Z,100.00
2018-06-27T17:48:59.755Z,100.00
2018-06-27T17:50:23.286Z,100.00
2018-06-27T17:51:50.888Z,100.00
2018-06-27T17:53:18.355Z,100.00
2018-06-27T17:54:45.923Z,100.00
2018-06-27T17:56:13.477Z,100.00
2018-06-27T17:57:44.865Z,100.00
2018-06-27T17:59:08.457Z,100.00
2018-06-27T18:00:36.035Z,100.00
2018-06-27T18:02:03.495Z,100.00
2018-06-27T18:03:30.984Z,100.00
2018-06-27T18:04:58.569Z,100.00
2018-06-27T18:06:26.003Z,100.00
2018-06-27T18:07:53.322Z,100.00
2018-06-27T18:09:20.873Z,100.00
2018-06-27T18:10:48.485Z,100.00
2018-06-27T18:12:19.863Z,100.00
2018-06-27T18:13:43.289Z,100.00
2018-06-27T18:15:11.046Z,100.00
2018-06-27T18:16:38.550Z,100.00
2018-06-27T18:18:05.841Z,100.00
2018-06-27T18:19:33.489Z,100.00
2018-06-27T18:21:00.989Z,100.00
2018-06-27T18:22:28.292Z,100.00
2018-06-27T18:23:55.776Z,100.00
2018-06-27T18:25:27.446Z,100.00
2018-06-27T18:26:51.002Z,100.00
2018-06-27T18:28:22.434Z,100.00
2018-06-27T18:29:45.997Z,100.00
2018-06-27T18:31:13.659Z,100.00
2018-06-27T18:32:41.244Z,100.00
2018-06-27T18:34:08.620Z,100.00
2018-06-27T18:35:36.082Z,100.00
2018-06-27T18:37:03.596Z,100.00
2018-06-27T18:38:31.119Z,100.00
2018-06-27T18:39:58.343Z,100.00
2018-06-27T18:41:25.982Z,100.00
2018-06-27T18:42:53.458Z,100.00
2018-06-27T18:44:20.880Z,100.00
2018-06-27T18:45:48.556Z,100.00
2018-06-27T18:47:20.133Z,100.00
2018-06-27T18:48:43.782Z,100.00
2018-06-27T18:50:11.197Z,100.00
2018-06-27T18:51:38.756Z,100.00
2018-06-27T18:53:06.310Z,100.00
2018-06-27T18:54:33.825Z,100.00
2018-06-27T18:56:05.347Z,100.00
2018-06-27T18:57:28.647Z,100.00
2018-06-27T18:58:56.188Z,100.00
2018-06-27T19:00:23.667Z,100.00
2018-06-27T19:01:51.291Z,100.00
2018-06-27T19:03:18.841Z,100.00
2018-06-27T19:04:46.039Z,100.00
2018-06-27T19:06:13.557Z,100.00
2018-06-27T19:07:40.874Z,100.00
2018-06-27T19:09:12.538Z,100.00
2018-06-27T19:10:39.714Z,100.00
2018-06-27T19:12:03.026Z,100.00
2018-06-27T19:13:34.466Z,100.00
2018-06-27T19:14:57.913Z,100.00
2018-06-27T19:16:25.304Z,100.00
2018-06-27T19:17:52.905Z,100.00
2018-06-27T19:19:24.346Z,100.00
2018-06-27T19:20:51.749Z,100.00
2018-06-27T19:22:18.876Z,100.00
2018-06-27T19:23:42.268Z,100.00
2018-06-27T19:25:13.671Z,100.00
2018-06-27T19:26:37.095Z,100.00
2018-06-27T19:28:04.419Z,100.00
2018-06-27T19:29:36.075Z,100.00
2018-06-27T19:31:03.534Z,100.00
2018-06-27T19:32:31.000Z,100.00
2018-06-27T19:33:54.450Z,100.00
2018-06-27T19:35:21.812Z,100.00
2018-06-27T19:36:53.279Z,100.00
2018-06-27T19:38:16.670Z,100.00
2018-06-27T19:39:44.202Z,100.00
2018-06-27T19:41:11.806Z,100.00
2018-06-27T19:42:39.117Z,100.00
2018-06-27T19:44:06.589Z,100.00
2018-06-27T19:45:34.181Z,100.00
2018-06-27T19:47:01.709Z,100.00
2018-06-27T19:48:32.807Z,100.00
2018-06-27T19:49:56.215Z,100.00
2018-06-27T19:51:23.645Z,100.00
2018-06-27T19:52:51.174Z,100.00
2018-06-27T19:54:18.543Z,100.00
2018-06-27T19:55:49.847Z,100.00
2018-06-27T19:57:13.279Z,100.00
2018-06-27T19:58:40.778Z,100.00
2018-06-27T20:00:08.165Z,100.00
2018-06-27T20:01:35.549Z,100.00
2018-06-27T20:03:03.044Z,100.00
2018-06-27T20:04:34.563Z,100.00
2018-06-27T20:05:58.162Z,100.00
2018-06-27T20:07:25.788Z,100.00
2018-06-27T20:08:53.040Z,100.00
2018-06-27T20:10:24.572Z,100.00
2018-06-27T20:11:47.933Z,100.00
2018-06-27T20:13:15.340Z,100.00
2018-06-27T20:14:42.448Z,100.00
2018-06-27T20:16:09.818Z,100.00
2018-06-27T20:17:37.350Z,100.00
2018-06-27T20:19:08.607Z,100.00
2018-06-27T20:20:31.966Z,100.00
2018-06-27T20:21:59.470Z,100.00
2018-06-27T20:23:26.799Z,100.00
2018-06-27T20:24:54.285Z,100.00
2018-06-27T20:26:21.768Z,100.00
2018-06-27T20:27:49.091Z,100.00
2018-06-27T20:29:16.437Z,100.00
2018-06-27T20:30:48.015Z,100.00
2018-06-27T20:32:11.511Z,100.00
2018-06-27T20:33:39.046Z,100.00
2018-06-27T20:35:06.507Z,100.00
2018-06-27T20:36:33.931Z,100.00
2018-06-27T20:38:01.145Z,100.00
2018-06-27T20:39:28.563Z,100.00
2018-06-27T20:40:55.960Z,100.00
2018-06-27T20:42:23.339Z,100.00
2018-06-27T20:43:54.945Z,100.00
2018-06-27T20:45:18.260Z,100.00
2018-06-27T20:46:45.727Z,100.00
2018-06-27T20:48:13.127Z,100.00
2018-06-27T20:49:40.501Z,100.00
2018-06-27T20:51:08.011Z,100.00
2018-06-27T20:52:39.493Z,100.00
2018-06-27T20:54:02.658Z,100.00
2018-06-27T20:55:30.158Z,100.00
2018-06-27T20:56:57.591Z,100.00
2018-06-27T20:58:24.885Z,100.00
2018-06-27T20:59:52.474Z,100.00
2018-06-27T21:01:20.002Z,100.00
2018-06-27T21:02:47.278Z,100.00
2018-06-27T21:04:18.805Z,100.00
2018-06-27T21:05:46.391Z,100.00
2018-06-27T21:07:13.852Z,100.00
2018-06-27T21:08:37.413Z,100.00
2018-06-27T21:10:08.927Z,100.00
2018-06-27T21:11:36.462Z,100.00
2018-06-27T21:12:59.735Z,100.00
2018-06-27T21:14:27.191Z,100.00
2018-06-27T21:15:58.399Z,100.00
2018-06-27T21:17:21.597Z,100.00
2018-06-27T21:18:53.183Z,100.00
2018-06-27T21:20:16.584Z,100.00
2018-06-27T21:21:43.999Z,100.00
2018-06-27T21:23:11.161Z,100.00
2018-06-27T21:24:38.232Z,100.00
2018-06-27T21:26:05.486Z,100.00
2018-06-27T21:27:32.696Z,100.00
2018-06-27T21:29:04.110Z,100.00
2018-06-27T21:30:27.710Z,100.00
2018-06-27T21:31:59.321Z,100.00
2018-06-27T21:33:26.612Z,100.00
2018-06-27T21:34:49.756Z,100.00
2018-06-27T21:36:20.984Z,100.00
2018-06-27T21:37:48.427Z,100.00
2018-06-27T21:39:11.844Z,100.00
2018-06-27T21:40:39.296Z,100.00
2018-06-27T21:42:06.900Z,100.00
2018-06-27T21:43:38.299Z,100.00
2018-06-27T21:45:05.748Z,100.00
2018-06-27T21:46:29.002Z,100.00
2018-06-27T21:47:56.531Z,100.00
2018-06-27T21:49:27.866Z,100.00
2018-06-27T21:50:51.069Z,100.00
2018-06-27T21:52:18.456Z,100.00
2018-06-27T21:53:45.873Z,100.00
2018-06-27T21:55:13.242Z,100.00
2018-06-27T21:56:44.781Z,100.00
2018-06-27T21:58:12.087Z,100.00
2018-06-27T21:59:39.448Z,100.00
2018-06-27T22:01:02.709Z,100.00
2018-06-27T22:02:30.183Z,100.00
2018-06-27T22:03:57.467Z,100.00
2018-06-27T22:05:24.674Z,100.00
2018-06-27T22:06:51.954Z,100.00
2018-06-27T22:08:19.449Z,100.00
2018-06-27T22:09:46.667Z,100.00
2018-06-27T22:11:14.270Z,100.00
2018-06-27T22:12:41.558Z,100.00
2018-06-27T22:14:08.787Z,100.00
2018-06-27T22:15:36.222Z,100.00
2018-06-27T22:17:03.765Z,100.00
2018-06-27T22:18:35.239Z,100.00
2018-06-27T22:19:58.478Z,100.00
2018-06-27T22:21:25.678Z,100.00
2018-06-27T22:22:53.047Z,100.00
2018-06-27T22:24:24.213Z,100.00
2018-06-27T22:25:47.440Z,100.00
2018-06-27T22:27:18.918Z,100.00
2018-06-27T22:28:41.950Z,100.00
2018-06-27T22:30:13.395Z,100.00
2018-06-27T22:31:36.775Z,100.00
2018-06-27T22:33:08.273Z,100.00
2018-06-27T22:34:35.590Z,100.00
2018-06-27T22:36:02.696Z,100.00
2018-06-27T22:37:25.967Z,100.00
2018-06-27T22:38:53.465Z,100.00
2018-06-27T22:40:21.033Z,100.00
2018-06-27T22:41:52.470Z,100.00
2018-06-27T22:43:15.682Z,100.00
2018-06-27T22:44:47.216Z,100.00
2018-06-27T22:46:10.738Z,100.00
2018-06-27T22:47:37.997Z,100.00
2018-06-27T22:49:09.398Z,100.00
2018-06-27T22:50:32.533Z,100.00
2018-06-27T22:51:59.767Z,100.00
2018-06-27T22:53:31.249Z,100.00
2018-06-27T22:54:54.757Z,100.00
2018-06-27T22:56:22.010Z,100.00
2018-06-27T22:57:49.515Z,100.00
2018-06-27T22:59:16.849Z,100.00